Flight Track Log - Related Links

Times and Time Zones

All times are in EDT time to prevent confusion due to time zone crossing. See the ASQ5311 flight status page for this flight to view local times or setup timezone preferences in your user account.

Time Position Orientation Groundspeed Altitude Reporting Facility
EDT Latitude Longitude Course Direction KTS MPH feet Rate Location/Type
Mon 10:12:54 PM 40.7667 -73.8333 33° Northeast 136 157 1,500  Level New York TRACON
Mon 10:13:54 PM 40.7833 -73.7667 72° East 236 272 3,500 2,100 Climbing New York TRACON
Mon 10:14:54 PM 40.8500 -73.7167 30° Northeast 274 315 5,700 2,250 Climbing New York TRACON
Mon 10:15:54 PM 40.9167 -73.6833 21° North 292 336 8,000 1,780 Climbing New York TRACON
Mon 10:18:00 PM 41.2447 -73.4859 33° Northeast  Level FlightAware Approximate
Mon 10:18:23 PM 41.1275 -73.5422 27° Northeast 375 432 11,900  Level Boston Center
Mon 10:19:24 PM 41.2364 -73.4719 26° Northeast 398 458 14,100 1,721 Climbing Boston Center
Mon 10:20:25 PM 41.3408 -73.4042 26° Northeast 415 478 15,400 1,672 Climbing Boston Center
Mon 10:21:26 PM 41.4350 -73.3089 37° Northeast 429 494 17,500 1,721 Climbing Boston Center
Mon 10:22:27 PM 41.5247 -73.1994 42° Northeast 432 497 18,900 1,525 Climbing Boston Center
Mon 10:23:28 PM 41.6011 -73.1047 43° Northeast 440 506 20,600 1,721 Climbing Boston Center
Mon 10:24:29 PM 41.7094 -72.9717 42° Northeast 443 510 22,400 1,438 Climbing Boston Center
Mon 10:25:29 PM 41.8011 -72.8583 43° Northeast 446 513 23,500 1,041 Climbing Boston Center
Mon 10:26:30 PM 41.8939 -72.7406 43° Northeast 458 527 24,500 1,033 Climbing Boston Center
Mon 10:27:31 PM 41.9897 -72.6200 43° Northeast 470 541 25,600 934 Climbing Boston Center
Mon 10:28:32 PM 42.0856 -72.4983 43° Northeast 474 545 26,400 689 Climbing Boston Center
Mon 10:29:33 PM 42.1839 -72.3744 43° Northeast 483 556 27,000 295 Climbing Boston Center
Mon 10:30:34 PM 42.2861 -72.2436 43° Northeast 507 583 27,000  Level Boston Center
Mon 10:31:35 PM 42.3903 -72.1108 43° Northeast 518 596 27,000  Level Boston Center
Mon 10:32:36 PM 42.4953 -71.9758 43° Northeast 521 600 27,000  Level Boston Center
Mon 10:33:36 PM 42.6208 -71.8133 44° Northeast 523 602 27,000  Level Boston Center
Mon 10:34:37 PM 42.7261 -71.6786 43° Northeast 522 601 27,000  Level Boston Center
Mon 10:35:38 PM 42.8281 -71.5425 44° Northeast 519 597 27,000  Level Boston Center
Mon 10:36:39 PM 42.9192 -71.4250 43° Northeast 518 596 27,000  Level Boston Center
Mon 10:37:40 PM 43.0442 -71.2597 44° Northeast 518 596 27,000  Level Boston Center
Mon 10:38:41 PM 43.1492 -71.1225 44° Northeast 521 600 27,000 -50 Level Boston Center
Mon 10:39:41 PM 43.2517 -70.9839 45° Northeast 522 601 26,900 -446 Descending Boston Center
Mon 10:40:42 PM 43.3558 -70.8464 44° Northeast 519 597 26,100 -738 Descending Boston Center
Mon 10:41:43 PM 43.4581 -70.7075 45° Northeast 513 590 25,400 -689 Descending Boston Center
Mon 10:42:44 PM 43.5592 -70.5725 44° Northeast 507 583 24,700 -689 Descending Boston Center
Mon 10:43:45 PM 43.6597 -70.4372 44° Northeast 505 581 24,000 -793 Descending Boston Center
Mon 10:44:45 PM 43.7600 -70.2978 45° Northeast 506 582 23,100 -942 Descending Boston Center
Mon 10:45:46 PM 43.8581 -70.1622 45° Northeast 496 571 22,100 -1,131 Descending Boston Center
Mon 10:46:47 PM 43.9542 -70.0344 44° Northeast 480 552 20,800 -1,328 Descending Boston Center
Mon 10:47:48 PM 44.0503 -69.8978 46° Northeast 489 563 19,400 -1,525 Descending Boston Center
Mon 10:48:49 PM 44.1500 -69.7614 44° Northeast 483 556 17,700 -1,537 Descending Boston Center
Mon 10:49:49 PM 44.2361 -69.6386 46° Northeast 462 532 16,300 -1,587 Descending Boston Center
Mon 10:50:50 PM 44.3275 -69.5158 44° Northeast 457 526 14,500 -2,410 Descending Boston Center
Mon 10:51:51 PM 44.4261 -69.4147 36° Northeast 444 511 11,400 -1,721 Descending Boston Center
Mon 10:52:52 PM 44.5183 -69.3217 36° Northeast 419 482 11,000 -595 Descending Boston Center
Mon 10:53:52 PM 44.6033 -69.2344 36° Northeast 391 450 10,200 -1,537 Descending Boston Center
Mon 10:54:53 PM 44.6797 -69.1544 37° Northeast 357 411 7,900 -2,262 Descending Boston Center
Mon 10:55:54 PM 44.7531 -69.0789 36° Northeast 336 387 5,600 -2,213 Descending Boston Center
Mon 10:56:55 PM 44.8372 -68.9906 37° Northeast 321 369 3,400 -1,587 Descending Boston Center
Mon 10:57:55 PM 44.8739 -68.9158 55° Northeast 248 285 2,400 -1,240 Descending Boston Center
Mon 10:58:56 PM 44.8475 -68.8878 143° Southeast 149 171 900 -1,033 Descending Boston Center
Mon 10:59:57 PM 44.8208 -68.8500 135° Southeast 135 155 300 -347 Descending Boston Center
Mon 11:00:57 PM 44.7956 -68.8125 134° Southeast 135 155 200 -100 Descending Boston Center

Login

Don't have an account? Register now (free) for customized features, flight alerts, and more!